Flight Track Log - Related Links

Times and Time Zones

All times are in EDT time to prevent confusion due to time zone crossing. See the SWA305 flight status page for this flight to view local times or setup timezone preferences in your user account.

Time Position Orientation Groundspeed Altitude Reporting Facility
EDT Latitude Longitude Course Direction KTS MPH feet Rate Location/Type
Tue 05:01:07 PM 41.9308 -72.7000 262° West 166 191 900  Level Boston Center
Tue 05:01:29 PM 41.9283 -72.7244 262° West 165 190 2,000 2,602 Climbing Boston Center
Tue 05:02:30 PM 41.9311 -72.8075 273° West 227 261 4,500 3,098 Climbing Boston Center
Tue 05:03:31 PM 41.9272 -72.8908 266° West 225 259 8,300 3,049 Climbing Boston Center
Tue 05:04:32 PM 41.9233 -72.9881 267° West 242 278 10,700 2,508 Climbing Boston Center
Tue 05:05:33 PM 41.9194 -73.0906 267° West 272 313 13,400 2,361 Climbing Boston Center
Tue 05:06:34 PM 41.9144 -73.2036 267° West 303 349 15,500 2,361 Climbing Boston Center
Tue 05:07:35 PM 41.8983 -73.3169 259° West 307 353 18,200 2,439 Climbing Boston Center
Tue 05:08:37 PM 41.8511 -73.4186 238° Southwest 313 360 20,500 2,049 Climbing Boston Center
Tue 05:09:38 PM 41.8064 -73.5192 239° Southwest 313 360 22,400 1,820 Climbing Boston Center
Tue 05:10:39 PM 41.7419 -73.5972 222° Southwest 316 364 24,200 1,279 Climbing Boston Center
Tue 05:11:40 PM 41.6669 -73.6617 213° Southwest 316 364 25,000 541 Climbing Boston Center
Tue 05:12:41 PM 41.5950 -73.7231 213° Southwest 329 379 25,300 492 Climbing Boston Center
Tue 05:13:42 PM 41.5186 -73.7889 213° Southwest 331 381 26,000 344 Climbing Boston Center
Tue 05:14:43 PM 41.4261 -73.8675 213° Southwest 330 380 26,000  Level Boston Center
Tue 05:15:45 PM 41.3508 -73.9308 212° Southwest 327 376 26,000  Level Boston Center
Tue 05:16:38 PM 41.2928 -73.9825 214° Southwest 334 384 26,000  Level New York Center
Tue 05:17:38 PM 41.2161 -74.0478 213° Southwest 334 384 26,000  Level New York Center
Tue 05:18:38 PM 41.1417 -74.1075 211° Southwest 334 384 26,000  Level New York Center
Tue 05:19:38 PM 41.0667 -74.1725 213° Southwest 329 379 26,000  Level New York Center
Tue 05:20:38 PM 40.9900 -74.2347 211° Southwest 329 379 26,000  Level New York Center
Tue 05:21:38 PM 40.9131 -74.2967 211° Southwest 329 379 26,000  Level New York Center
Tue 05:22:38 PM 40.8319 -74.3639 212° Southwest 335 386 26,000  Level New York Center
Tue 05:23:38 PM 40.7608 -74.4450 221° Southwest 335 386 26,000  Level New York Center
Tue 05:24:38 PM 40.7014 -74.5431 231° Southwest 341 392 26,000  Level New York Center
Tue 05:25:38 PM 40.6417 -74.6464 233° Southwest 353 406 26,000  Level New York Center
Tue 05:26:38 PM 40.5822 -74.7442 231° Southwest 353 406 26,000  Level New York Center
Tue 05:27:38 PM 40.5167 -74.8358 227° Southwest 353 406 26,000 -500 Level New York Center
Tue 05:28:38 PM 40.4464 -74.9356 227° Southwest 348 400 25,000 -1,850 Descending New York Center
Tue 05:29:38 PM 40.3850 -75.0217 227° Southwest 341 392 22,300 -2,650 Descending New York Center
Tue 05:30:38 PM 40.3233 -75.1103 228° Southwest 336 387 19,700 -1,650 Descending New York Center
Tue 05:31:38 PM 40.2619 -75.1936 226° Southwest 325 374 19,000 -350 Descending New York Center
Tue 05:32:38 PM 40.2158 -75.2586 227° Southwest 318 366 19,000  Level New York Center
Tue 05:33:38 PM 40.1519 -75.3469 227° Southwest 298 343 19,000  Level New York Center
Tue 05:34:38 PM 40.1056 -75.4144 228° Southwest 286 329 19,000  Level New York Center
Tue 05:35:38 PM 40.0461 -75.4944 226° Southwest 286 329 19,000  Level New York Center
Tue 05:36:38 PM 39.9953 -75.5614 225° Southwest 286 329 19,000 -500 Level New York Center
Tue 05:37:38 PM 39.9356 -75.6467 228° Southwest 286 329 18,000 -950 Descending New York Center
Tue 05:38:38 PM 39.8931 -75.7194 233° Southwest 291 335 17,100 -950 Descending New York Center
Tue 05:39:38 PM 39.8408 -75.8186 236° Southwest 303 349 16,100 -1,031 Descending New York Center
Tue 05:41:21 PM 39.7667 -75.9833 240° Southwest 302 348 14,300 -1,399 Descending Potomac TRACON
Tue 05:42:21 PM 39.7167 -76.0667 232° Southwest 299 344 12,300 -1,579 Descending Potomac TRACON
Tue 05:43:15 PM 39.6667 -76.1333 226° Southwest 269 310 11,300 -991 Descending Potomac TRACON
Tue 05:44:16 PM 39.6000 -76.1833 210° Southwest 267 307 10,400 -893 Descending Potomac TRACON
Tue 05:45:16 PM 39.5500 -76.2500 226° Southwest 236 272 9,500 -1,100 Descending Potomac TRACON
Tue 05:46:16 PM 39.5000 -76.3000 218° Southwest 232 267 8,200 -1,800 Descending Potomac TRACON
Tue 05:47:16 PM 39.4500 -76.3500 218° Southwest 263 303 5,900 -1,550 Descending Potomac TRACON
Tue 05:48:16 PM 39.4000 -76.4167 226° Southwest 257 296 5,100 -450 Descending Potomac TRACON
Tue 05:49:16 PM 39.3167 -76.4333 189° South 282 325 5,000 -550 Descending Potomac TRACON
Tue 05:50:16 PM 39.2500 -76.4500 191° South 276 318 4,000 -474 Descending Potomac TRACON
Tue 05:51:10 PM 39.1833 -76.4500 180° South 259 298 4,100  Climbing Potomac TRACON
Tue 05:52:10 PM 39.1167 -76.4333 169° South 262 302 4,000  Descending Potomac TRACON
Tue 05:53:10 PM 39.0667 -76.3833 142° Southeast 246 283 4,100  Climbing Potomac TRACON
Tue 05:54:10 PM 39.0000 -76.3667 169° South 243 280 4,000 -350 Descending Potomac TRACON
Tue 05:55:10 PM 38.9500 -76.4000 207° Southwest 213 245 3,400 -500 Descending Potomac TRACON
Tue 05:56:10 PM 38.9333 -76.4500 247° West 160 184 3,000 -150 Descending Potomac TRACON
Tue 05:57:10 PM 38.9667 -76.4833 322° Northwest 150 173 3,100  Climbing Potomac TRACON
Tue 05:58:04 PM 39.0000 -76.5167 322° Northwest 152 175 3,000  Descending Potomac TRACON
Tue 05:59:04 PM 39.0333 -76.5333 339° North 142 163 3,100 -100 Climbing Potomac TRACON
Tue 06:00:04 PM 39.0667 -76.5667 322° Northwest 135 155 2,800 -450 Descending Potomac TRACON
Tue 06:01:04 PM 39.0833 -76.5833 322° Northwest 107 123 2,200 -650 Descending Potomac TRACON
Tue 06:02:04 PM 39.1167 -76.6167 322° Northwest 117 135 1,500 -700 Descending Potomac TRACON
Tue 06:03:04 PM 39.1333 -76.6333 322° Northwest 120 138 800 -700 Descending Potomac TRACON

Login

Don't have an account? Register now (free) for customized features, flight alerts, and more!